ΕΜΥ, Εθνική Μετεωρολογική Υπηρεσία - Δελτία Καιρού, Προγνώσεις

ΑΕΡΟΝΑΥΤΙΛΙΑ

GREEK AIRPORTS CODES

TAF LGTS 061100Z 0612/0712 VRB03KT 9999 SCT030 PROB40 TEMPO 0612/0712 7000 SHRA FEW020TCU SCT025 TEMPO 0618/0706 3000 TSRA FEW018CB BKN020 BECMG 0616/0618 34015KT=

EUROPEAN AIRPORTS CODES